sensor_id;sensor_type;location;lat;lon;timestamp;pressure;altitude;pressure_sealevel;temperature;humidity
14067;BME280;7108;42.684;23.350;2023-02-27T00:01:55;94414.16;;;12.33;100.00
14067;BME280;7108;42.684;23.350;2023-02-27T00:04:20;94421.47;;;12.43;100.00
14067;BME280;7108;42.684;23.350;2023-02-27T00:06:46;94438.06;;;12.51;100.00
14067;BME280;7108;42.684;23.350;2023-02-27T00:09:11;94431.09;;;12.57;100.00
14067;BME280;7108;42.684;23.350;2023-02-27T00:11:37;94409.47;;;12.54;100.00
14067;BME280;7108;42.684;23.350;2023-02-27T00:14:03;94397.91;;;12.46;100.00
14067;BME280;7108;42.684;23.350;2023-02-27T00:16:28;94411.03;;;12.51;100.00
14067;BME280;7108;42.684;23.350;2023-02-27T00:18:54;94431.88;;;12.37;100.00
14067;BME280;7108;42.684;23.350;2023-02-27T00:21:21;94406.06;;;11.94;100.00
14067;BME280;7108;42.684;23.350;2023-02-27T00:23:47;94413.38;;;12.15;100.00
14067;BME280;7108;42.684;23.350;2023-02-27T00:26:13;94433.44;;;12.17;100.00
14067;BME280;7108;42.684;23.350;2023-02-27T00:28:38;94424.97;;;12.12;100.00
14067;BME280;7108;42.684;23.350;2023-02-27T00:31:04;94417.63;;;12.09;100.00
14067;BME280;7108;42.684;23.350;2023-02-27T00:33:29;94430.75;;;12.17;100.00
14067;BME280;7108;42.684;23.350;2023-02-27T00:35:59;94416.09;;;12.04;100.00
14067;BME280;7108;42.684;23.350;2023-02-27T00:38:25;94429.59;;;11.87;100.00
14067;BME280;7108;42.684;23.350;2023-02-27T00:40:51;94431.53;;;11.93;100.00
14067;BME280;7108;42.684;23.350;2023-02-27T00:43:17;94399.88;;;11.80;100.00
14067;BME280;7108;42.684;23.350;2023-02-27T00:45:42;94402.59;;;11.83;100.00
14067;BME280;7108;42.684;23.350;2023-02-27T00:48:07;94434.59;;;11.88;100.00
14067;BME280;7108;42.684;23.350;2023-02-27T00:50:33;94408.38;;;11.82;100.00
14067;BME280;7108;42.684;23.350;2023-02-27T00:52:58;94417.97;;;11.62;100.00
14067;BME280;7108;42.684;23.350;2023-02-27T00:55:24;94422.63;;;11.76;100.00
14067;BME280;7108;42.684;23.350;2023-02-27T00:57:49;94424.06;;;11.42;100.00
14067;BME280;7108;42.684;23.350;2023-02-27T01:00:15;94452.22;;;11.44;100.00
14067;BME280;7108;42.684;23.350;2023-02-27T01:02:41;94428.69;;;11.45;100.00
14067;BME280;7108;42.684;23.350;2023-02-27T01:05:06;94433.00;;;11.60;100.00
14067;BME280;7108;42.684;23.350;2023-02-27T01:07:32;94443.41;;;11.58;100.00
14067;BME280;7108;42.684;23.350;2023-02-27T01:09:57;94438.78;;;11.58;100.00
14067;BME280;7108;42.684;23.350;2023-02-27T01:12:23;94407.09;;;11.31;100.00
14067;BME280;7108;42.684;23.350;2023-02-27T01:14:48;94436.50;;;11.64;100.00
14067;BME280;7108;42.684;23.350;2023-02-27T01:17:14;94440.75;;;11.75;100.00
14067;BME280;7108;42.684;23.350;2023-02-27T01:19:39;94445.00;;;11.90;100.00
14067;BME280;7108;42.684;23.350;2023-02-27T01:22:05;94438.47;;;11.91;100.00
14067;BME280;7108;42.684;23.350;2023-02-27T01:24:30;94440.38;;;11.87;100.00
14067;BME280;7108;42.684;23.350;2023-02-27T01:26:56;94444.63;;;11.95;100.00
14067;BME280;7108;42.684;23.350;2023-02-27T01:29:21;94424.56;;;11.92;100.00
14067;BME280;7108;42.684;23.350;2023-02-27T01:31:47;94421.47;;;11.97;100.00
14067;BME280;7108;42.684;23.350;2023-02-27T01:34:13;94426.88;;;12.01;100.00
14067;BME280;7108;42.684;23.350;2023-02-27T01:36:39;94451.91;;;11.67;100.00
14067;BME280;7108;42.684;23.350;2023-02-27T01:39:04;94448.44;;;11.70;100.00
14067;BME280;7108;42.684;23.350;2023-02-27T01:41:29;94456.53;;;11.73;100.00
14067;BME280;7108;42.684;23.350;2023-02-27T01:43:59;94464.25;;;11.78;100.00
14067;BME280;7108;42.684;23.350;2023-02-27T01:46:26;94452.66;;;11.57;100.00
14067;BME280;7108;42.684;23.350;2023-02-27T01:48:56;94475.78;;;11.54;100.00
14067;BME280;7108;42.684;23.350;2023-02-27T01:51:25;94488.81;;;11.42;100.00
14067;BME280;7108;42.684;23.350;2023-02-27T01:53:52;94502.78;;;11.68;100.00
14067;BME280;7108;42.684;23.350;2023-02-27T01:56:25;94509.00;;;11.82;100.00
14067;BME280;7108;42.684;23.350;2023-02-27T01:58:53;94500.50;;;11.80;100.00
14067;BME280;7108;42.684;23.350;2023-02-27T02:01:21;94503.59;;;11.82;100.00
14067;BME280;7108;42.684;23.350;2023-02-27T02:06:36;94486.59;;;11.68;100.00
14067;BME280;7108;42.684;23.350;2023-02-27T02:09:02;94492.03;;;11.75;100.00
14067;BME280;7108;42.684;23.350;2023-02-27T02:11:28;94522.06;;;11.77;100.00
14067;BME280;7108;42.684;23.350;2023-02-27T02:13:59;94547.91;;;11.71;100.00
14067;BME280;7108;42.684;23.350;2023-02-27T02:19:26;94555.19;;;11.60;100.00
14067;BME280;7108;42.684;23.350;2023-02-27T02:22:20;94569.88;;;11.66;100.00
14067;BME280;7108;42.684;23.350;2023-02-27T02:27:32;94694.72;;;11.10;100.00
14067;BME280;7108;42.684;23.350;2023-02-27T02:35:58;94722.22;;;10.86;100.00
14067;BME280;7108;42.684;23.350;2023-02-27T02:38:41;94696.47;;;10.92;100.00
14067;BME280;7108;42.684;23.350;2023-02-27T02:41:20;94691.47;;;10.90;100.00
14067;BME280;7108;42.684;23.350;2023-02-27T02:46:28;94720.31;;;10.90;100.00
14067;BME280;7108;42.684;23.350;2023-02-27T02:49:02;94715.06;;;10.64;100.00
14067;BME280;7108;42.684;23.350;2023-02-27T02:54:23;94757.06;;;10.68;100.00
14067;BME280;7108;42.684;23.350;2023-02-27T02:56:59;94759.84;;;10.75;100.00
14067;BME280;7108;42.684;23.350;2023-02-27T02:59:49;94759.38;;;10.70;100.00
14067;BME280;7108;42.684;23.350;2023-02-27T03:02:21;94742.28;;;10.55;100.00
14067;BME280;7108;42.684;23.350;2023-02-27T03:04:54;94758.78;;;10.50;100.00
14067;BME280;7108;42.684;23.350;2023-02-27T03:07:23;94773.19;;;10.65;100.00
14067;BME280;7108;42.684;23.350;2023-02-27T03:10:08;94777.53;;;10.76;100.00
14067;BME280;7108;42.684;23.350;2023-02-27T03:12:37;94775.50;;;10.66;100.00
14067;BME280;7108;42.684;23.350;2023-02-27T03:15:21;94800.72;;;10.51;100.00
14067;BME280;7108;42.684;23.350;2023-02-27T03:17:57;94799.22;;;10.21;100.00
14067;BME280;7108;42.684;23.350;2023-02-27T03:20:31;94803.75;;;10.17;100.00
14067;BME280;7108;42.684;23.350;2023-02-27T03:23:02;94797.81;;;10.05;100.00
14067;BME280;7108;42.684;23.350;2023-02-27T03:25:30;94787.84;;;9.79;100.00
14067;BME280;7108;42.684;23.350;2023-02-27T03:28:00;94796.53;;;9.47;100.00
14067;BME280;7108;42.684;23.350;2023-02-27T03:30:31;94834.53;;;9.46;100.00
14067;BME280;7108;42.684;23.350;2023-02-27T03:33:04;94845.38;;;8.86;100.00
14067;BME280;7108;42.684;23.350;2023-02-27T03:40:48;94882.19;;;8.66;100.00
14067;BME280;7108;42.684;23.350;2023-02-27T03:45:58;94877.34;;;8.72;100.00
14067;BME280;7108;42.684;23.350;2023-02-27T03:48:25;94851.25;;;8.53;100.00
14067;BME280;7108;42.684;23.350;2023-02-27T03:50:50;94873.66;;;8.80;100.00
14067;BME280;7108;42.684;23.350;2023-02-27T03:53:39;94904.81;;;9.03;100.00
14067;BME280;7108;42.684;23.350;2023-02-27T03:56:08;94899.09;;;9.05;100.00
14067;BME280;7108;42.684;23.350;2023-02-27T03:58:39;94905.84;;;9.17;100.00
14067;BME280;7108;42.684;23.350;2023-02-27T04:01:05;94910.66;;;9.27;100.00
14067;BME280;7108;42.684;23.350;2023-02-27T04:03:38;94915.34;;;9.12;100.00
14067;BME280;7108;42.684;23.350;2023-02-27T04:06:06;94885.19;;;8.80;100.00
14067;BME280;7108;42.684;23.350;2023-02-27T04:09:05;94913.25;;;8.83;100.00
14067;BME280;7108;42.684;23.350;2023-02-27T04:17:47;94898.28;;;8.13;100.00
14067;BME280;7108;42.684;23.350;2023-02-27T04:20:28;94934.13;;;8.21;100.00
14067;BME280;7108;42.684;23.350;2023-02-27T04:23:03;94940.53;;;8.01;100.00
14067;BME280;7108;42.684;23.350;2023-02-27T04:25:49;94912.00;;;7.78;100.00
14067;BME280;7108;42.684;23.350;2023-02-27T04:28:35;94959.56;;;7.80;100.00
14067;BME280;7108;42.684;23.350;2023-02-27T04:31:27;94942.19;;;7.44;100.00
14067;BME280;7108;42.684;23.350;2023-02-27T04:34:22;94959.75;;;7.57;100.00
14067;BME280;7108;42.684;23.350;2023-02-27T04:36:56;94975.31;;;7.67;100.00
14067;BME280;7108;42.684;23.350;2023-02-27T04:39:26;94967.16;;;7.48;100.00
14067;BME280;7108;42.684;23.350;2023-02-27T04:42:04;94989.94;;;7.69;100.00
14067;BME280;7108;42.684;23.350;2023-02-27T04:44:33;94990.13;;;7.76;100.00
14067;BME280;7108;42.684;23.350;2023-02-27T04:47:02;95016.94;;;7.91;100.00
14067;BME280;7108;42.684;23.350;2023-02-27T04:49:54;95006.16;;;7.88;100.00
14067;BME280;7108;42.684;23.350;2023-02-27T04:52:21;95006.13;;;7.73;100.00
14067;BME280;7108;42.684;23.350;2023-02-27T04:55:11;95006.28;;;7.64;100.00
14067;BME280;7108;42.684;23.350;2023-02-27T04:58:06;95035.09;;;7.82;100.00
14067;BME280;7108;42.684;23.350;2023-02-27T05:00:36;95023.47;;;7.63;100.00
14067;BME280;7108;42.684;23.350;2023-02-27T05:03:08;95027.38;;;7.66;100.00
14067;BME280;7108;42.684;23.350;2023-02-27T05:05:37;95013.09;;;7.62;100.00
14067;BME280;7108;42.684;23.350;2023-02-27T05:10:45;95017.44;;;7.39;100.00
14067;BME280;7108;42.684;23.350;2023-02-27T05:13:49;95039.88;;;7.46;100.00
14067;BME280;7108;42.684;23.350;2023-02-27T05:18:44;95052.66;;;7.65;100.00
14067;BME280;7108;42.684;23.350;2023-02-27T05:21:42;95068.06;;;7.83;100.00
14067;BME280;7108;42.684;23.350;2023-02-27T05:24:21;95064.69;;;8.01;100.00
14067;BME280;7108;42.684;23.350;2023-02-27T05:27:47;95060.44;;;7.85;100.00
14067;BME280;7108;42.684;23.350;2023-02-27T05:29:58;95088.59;;;7.91;100.00
14067;BME280;7108;42.684;23.350;2023-02-27T05:35:17;95086.66;;;7.76;100.00
14067;BME280;7108;42.684;23.350;2023-02-27T05:40:38;95072.44;;;8.03;100.00
14067;BME280;7108;42.684;23.350;2023-02-27T05:43:09;95075.88;;;8.03;100.00
14067;BME280;7108;42.684;23.350;2023-02-27T05:45:39;95081.00;;;8.08;100.00
14067;BME280;7108;42.684;23.350;2023-02-27T05:48:16;95053.31;;;8.04;100.00
14067;BME280;7108;42.684;23.350;2023-02-27T05:50:44;95104.84;;;8.25;100.00
14067;BME280;7108;42.684;23.350;2023-02-27T05:53:15;95102.84;;;8.22;100.00
14067;BME280;7108;42.684;23.350;2023-02-27T05:55:46;95074.59;;;8.13;100.00
14067;BME280;7108;42.684;23.350;2023-02-27T05:58:33;95101.03;;;8.26;100.00
14067;BME280;7108;42.684;23.350;2023-02-27T06:01:01;95098.63;;;8.37;100.00
14067;BME280;7108;42.684;23.350;2023-02-27T06:03:30;95092.03;;;8.19;100.00
14067;BME280;7108;42.684;23.350;2023-02-27T06:05:57;95107.88;;;8.39;100.00
14067;BME280;7108;42.684;23.350;2023-02-27T06:08:23;95127.81;;;8.53;100.00
14067;BME280;7108;42.684;23.350;2023-02-27T06:10:49;95129.63;;;8.49;100.00
14067;BME280;7108;42.684;23.350;2023-02-27T06:13:15;95108.47;;;8.48;100.00
14067;BME280;7108;42.684;23.350;2023-02-27T06:15:42;95113.84;;;8.33;100.00
14067;BME280;7108;42.684;23.350;2023-02-27T06:18:09;95139.06;;;8.59;100.00
14067;BME280;7108;42.684;23.350;2023-02-27T06:20:35;95131.69;;;8.56;100.00
14067;BME280;7108;42.684;23.350;2023-02-27T06:23:01;95113.50;;;8.65;100.00
14067;BME280;7108;42.684;23.350;2023-02-27T06:25:26;95103.66;;;8.53;100.00
14067;BME280;7108;42.684;23.350;2023-02-27T06:27:52;95096.88;;;8.29;100.00
14067;BME280;7108;42.684;23.350;2023-02-27T06:30:18;95128.69;;;8.42;100.00
14067;BME280;7108;42.684;23.350;2023-02-27T06:32:44;95132.38;;;8.53;100.00
14067;BME280;7108;42.684;23.350;2023-02-27T06:35:10;95129.19;;;8.63;100.00
14067;BME280;7108;42.684;23.350;2023-02-27T06:37:35;95146.59;;;8.53;100.00
14067;BME280;7108;42.684;23.350;2023-02-27T06:40:01;95158.97;;;8.73;100.00
14067;BME280;7108;42.684;23.350;2023-02-27T06:42:30;95125.38;;;8.64;100.00
14067;BME280;7108;42.684;23.350;2023-02-27T06:44:56;95139.91;;;8.78;100.00
14067;BME280;7108;42.684;23.350;2023-02-27T06:47:22;95145.03;;;8.83;100.00
14067;BME280;7108;42.684;23.350;2023-02-27T06:49:47;95141.22;;;8.84;100.00
14067;BME280;7108;42.684;23.350;2023-02-27T06:52:13;95152.41;;;8.86;100.00
14067;BME280;7108;42.684;23.350;2023-02-27T06:54:38;95165.47;;;9.03;100.00
14067;BME280;7108;42.684;23.350;2023-02-27T06:57:04;95125.97;;;8.88;100.00
14067;BME280;7108;42.684;23.350;2023-02-27T06:59:30;95140.50;;;9.03;100.00
14067;BME280;7108;42.684;23.350;2023-02-27T07:01:55;95160.88;;;9.04;100.00
14067;BME280;7108;42.684;23.350;2023-02-27T07:04:22;95158.63;;;8.90;100.00
14067;BME280;7108;42.684;23.350;2023-02-27T07:06:51;95137.50;;;8.73;100.00
14067;BME280;7108;42.684;23.350;2023-02-27T07:09:17;95132.31;;;8.65;100.00
14067;BME280;7108;42.684;23.350;2023-02-27T07:11:43;95172.06;;;8.90;100.00
14067;BME280;7108;42.684;23.350;2023-02-27T07:14:08;95160.63;;;9.09;100.00
14067;BME280;7108;42.684;23.350;2023-02-27T07:16:34;95128.63;;;9.04;100.00
14067;BME280;7108;42.684;23.350;2023-02-27T07:18:59;95131.94;;;9.31;100.00
14067;BME280;7108;42.684;23.350;2023-02-27T07:21:25;95159.09;;;9.26;100.00
14067;BME280;7108;42.684;23.350;2023-02-27T07:23:50;95152.97;;;9.45;100.00
14067;BME280;7108;42.684;23.350;2023-02-27T07:26:16;95159.28;;;9.52;100.00
14067;BME280;7108;42.684;23.350;2023-02-27T07:28:41;95150.00;;;9.50;100.00
14067;BME280;7108;42.684;23.350;2023-02-27T07:31:06;95170.38;;;10.04;100.00
14067;BME280;7108;42.684;23.350;2023-02-27T07:33:32;95183.41;;;10.40;100.00
14067;BME280;7108;42.684;23.350;2023-02-27T07:35:58;95162.81;;;10.50;100.00
14067;BME280;7108;42.684;23.350;2023-02-27T07:38:24;95170.50;;;10.71;100.00
14067;BME280;7108;42.684;23.350;2023-02-27T07:40:51;95159.19;;;10.84;100.00
14067;BME280;7108;42.684;23.350;2023-02-27T07:43:17;95178.03;;;11.32;100.00
14067;BME280;7108;42.684;23.350;2023-02-27T07:45:44;95170.78;;;11.59;100.00
14067;BME280;7108;42.684;23.350;2023-02-27T07:48:09;95168.38;;;11.83;100.00
14067;BME280;7108;42.684;23.350;2023-02-27T07:50:35;95159.19;;;11.87;100.00
14067;BME280;7108;42.684;23.350;2023-02-27T07:53:01;95187.66;;;12.11;100.00
14067;BME280;7108;42.684;23.350;2023-02-27T07:55:26;95149.84;;;12.11;100.00
14067;BME280;7108;42.684;23.350;2023-02-27T07:57:55;95183.44;;;12.46;100.00
14067;BME280;7108;42.684;23.350;2023-02-27T08:00:20;95179.56;;;12.47;100.00
14067;BME280;7108;42.684;23.350;2023-02-27T08:02:46;95191.41;;;11.74;100.00
14067;BME280;7108;42.684;23.350;2023-02-27T08:05:11;95190.91;;;10.94;100.00
14067;BME280;7108;42.684;23.350;2023-02-27T08:07:37;95180.44;;;10.89;100.00
14067;BME280;7108;42.684;23.350;2023-02-27T08:10:03;95199.59;;;11.07;100.00
14067;BME280;7108;42.684;23.350;2023-02-27T08:12:29;95179.03;;;11.21;100.00
14067;BME280;7108;42.684;23.350;2023-02-27T08:14:54;95186.72;;;11.45;100.00
14067;BME280;7108;42.684;23.350;2023-02-27T08:17:20;95194.19;;;11.55;100.00
14067;BME280;7108;42.684;23.350;2023-02-27T08:19:45;95176.16;;;11.33;100.00
14067;BME280;7108;42.684;23.350;2023-02-27T08:22:11;95176.91;;;11.33;100.00
14067;BME280;7108;42.684;23.350;2023-02-27T08:24:36;95181.31;;;11.45;100.00
14067;BME280;7108;42.684;23.350;2023-02-27T08:27:02;95208.19;;;11.60;100.00
14067;BME280;7108;42.684;23.350;2023-02-27T08:29:28;95167.44;;;11.20;100.00
14067;BME280;7108;42.684;23.350;2023-02-27T08:31:55;95180.75;;;11.32;100.00
14067;BME280;7108;42.684;23.350;2023-02-27T08:34:20;95197.31;;;11.57;100.00
14067;BME280;7108;42.684;23.350;2023-02-27T08:36:46;95184.03;;;11.71;100.00
14067;BME280;7108;42.684;23.350;2023-02-27T08:39:11;95185.75;;;11.82;100.00
14067;BME280;7108;42.684;23.350;2023-02-27T08:41:37;95178.22;;;11.69;100.00
14067;BME280;7108;42.684;23.350;2023-02-27T08:44:03;95188.66;;;11.70;100.00
14067;BME280;7108;42.684;23.350;2023-02-27T08:46:28;95183.38;;;11.29;100.00
14067;BME280;7108;42.684;23.350;2023-02-27T08:48:54;95184.69;;;11.38;100.00
14067;BME280;7108;42.684;23.350;2023-02-27T08:51:19;95170.31;;;11.31;100.00
14067;BME280;7108;42.684;23.350;2023-02-27T08:53:44;95189.09;;;11.50;100.00
14067;BME280;7108;42.684;23.350;2023-02-27T08:56:10;95166.25;;;11.44;100.00
14067;BME280;7108;42.684;23.350;2023-02-27T08:58:35;95191.69;;;11.17;100.00
14067;BME280;7108;42.684;23.350;2023-02-27T09:01:02;95185.75;;;10.86;100.00
14067;BME280;7108;42.684;23.350;2023-02-27T09:03:27;95190.75;;;11.06;100.00
14067;BME280;7108;42.684;23.350;2023-02-27T09:05:54;95206.28;;;10.71;100.00
14067;BME280;7108;42.684;23.350;2023-02-27T09:08:20;95184.06;;;10.55;100.00
14067;BME280;7108;42.684;23.350;2023-02-27T09:10:46;95223.84;;;10.84;100.00
14067;BME280;7108;42.684;23.350;2023-02-27T09:13:12;95230.97;;;10.96;100.00
14067;BME280;7108;42.684;23.350;2023-02-27T09:15:37;95241.88;;;11.25;100.00
14067;BME280;7108;42.684;23.350;2023-02-27T09:18:04;95234.91;;;11.46;100.00
14067;BME280;7108;42.684;23.350;2023-02-27T09:20:32;95215.88;;;11.36;100.00
14067;BME280;7108;42.684;23.350;2023-02-27T09:23:00;95211.72;;;11.42;100.00
14067;BME280;7108;42.684;23.350;2023-02-27T09:25:26;95243.72;;;11.66;100.00
14067;BME280;7108;42.684;23.350;2023-02-27T09:27:52;95210.69;;;11.50;100.00
14067;BME280;7108;42.684;23.350;2023-02-27T09:30:17;95221.25;;;11.58;100.00
14067;BME280;7108;42.684;23.350;2023-02-27T09:32:43;95208.81;;;11.50;100.00
14067;BME280;7108;42.684;23.350;2023-02-27T09:35:08;95193.09;;;11.33;100.00
14067;BME280;7108;42.684;23.350;2023-02-27T09:37:34;95219.78;;;11.64;100.00
14067;BME280;7108;42.684;23.350;2023-02-27T09:40:00;95219.94;;;11.75;100.00
14067;BME280;7108;42.684;23.350;2023-02-27T09:42:32;95243.06;;;12.01;100.00
14067;BME280;7108;42.684;23.350;2023-02-27T09:45:04;95226.31;;;11.63;100.00
14067;BME280;7108;42.684;23.350;2023-02-27T09:47:37;95233.03;;;11.73;100.00
14067;BME280;7108;42.684;23.350;2023-02-27T09:50:32;95229.69;;;11.82;100.00
14067;BME280;7108;42.684;23.350;2023-02-27T09:53:01;95224.75;;;11.62;100.00
14067;BME280;7108;42.684;23.350;2023-02-27T09:55:31;95249.69;;;11.78;100.00
14067;BME280;7108;42.684;23.350;2023-02-27T10:03:29;95257.94;;;11.88;100.00
14067;BME280;7108;42.684;23.350;2023-02-27T10:06:25;95262.97;;;11.90;100.00
14067;BME280;7108;42.684;23.350;2023-02-27T10:11:32;95267.69;;;11.96;100.00
14067;BME280;7108;42.684;23.350;2023-02-27T10:14:11;95268.81;;;11.95;100.00
14067;BME280;7108;42.684;23.350;2023-02-27T10:16:41;95238.25;;;11.88;100.00
14067;BME280;7108;42.684;23.350;2023-02-27T10:19:14;95262.34;;;12.00;100.00
14067;BME280;7108;42.684;23.350;2023-02-27T10:21:44;95230.53;;;11.86;100.00
14067;BME280;7108;42.684;23.350;2023-02-27T10:24:27;95260.72;;;11.95;100.00
14067;BME280;7108;42.684;23.350;2023-02-27T10:26:56;95259.44;;;11.86;100.00
14067;BME280;7108;42.684;23.350;2023-02-27T10:29:30;95268.06;;;11.95;100.00
14067;BME280;7108;42.684;23.350;2023-02-27T10:32:04;95261.91;;;11.98;100.00
14067;BME280;7108;42.684;23.350;2023-02-27T10:34:32;95245.72;;;11.72;100.00
14067;BME280;7108;42.684;23.350;2023-02-27T10:37:01;95215.53;;;11.63;100.00
14067;BME280;7108;42.684;23.350;2023-02-27T10:39:29;95222.50;;;11.64;100.00
14067;BME280;7108;42.684;23.350;2023-02-27T10:42:02;95244.66;;;11.77;100.00
14067;BME280;7108;42.684;23.350;2023-02-27T10:44:29;95244.50;;;11.66;100.00
14067;BME280;7108;42.684;23.350;2023-02-27T10:46:56;95249.72;;;11.81;100.00
14067;BME280;7108;42.684;23.350;2023-02-27T10:49:22;95224.06;;;11.65;100.00
14067;BME280;7108;42.684;23.350;2023-02-27T10:52:11;95254.13;;;11.67;100.00
14067;BME280;7108;42.684;23.350;2023-02-27T10:54:37;95248.81;;;11.48;100.00
14067;BME280;7108;42.684;23.350;2023-02-27T10:57:52;95222.31;;;11.54;100.00
14067;BME280;7108;42.684;23.350;2023-02-27T10:59:58;95230.53;;;11.61;100.00
14067;BME280;7108;42.684;23.350;2023-02-27T11:02:47;95259.72;;;11.77;100.00
14067;BME280;7108;42.684;23.350;2023-02-27T11:05:30;95256.63;;;11.79;100.00
14067;BME280;7108;42.684;23.350;2023-02-27T11:08:10;95230.66;;;11.68;100.00
14067;BME280;7108;42.684;23.350;2023-02-27T11:10:52;95248.03;;;11.96;100.00
14067;BME280;7108;42.684;23.350;2023-02-27T11:13:19;95227.88;;;11.90;100.00
14067;BME280;7108;42.684;23.350;2023-02-27T11:18:28;95237.91;;;11.89;100.00
14067;BME280;7108;42.684;23.350;2023-02-27T11:21:23;95243.34;;;11.93;100.00
14067;BME280;7108;42.684;23.350;2023-02-27T11:29:06;95220.81;;;12.08;100.00
14067;BME280;7108;42.684;23.350;2023-02-27T11:31:34;95197.63;;;11.77;100.00
14067;BME280;7108;42.684;23.350;2023-02-27T11:34:03;95216.16;;;12.08;100.00
14067;BME280;7108;42.684;23.350;2023-02-27T11:36:44;95208.88;;;12.12;100.00
14067;BME280;7108;42.684;23.350;2023-02-27T11:39:38;95214.69;;;12.14;100.00
14067;BME280;7108;42.684;23.350;2023-02-27T11:42:11;95216.22;;;12.12;100.00
14067;BME280;7108;42.684;23.350;2023-02-27T11:44:50;95221.56;;;12.08;100.00
14067;BME280;7108;42.684;23.350;2023-02-27T11:47:23;95218.59;;;11.87;100.00
14067;BME280;7108;42.684;23.350;2023-02-27T11:50:04;95234.16;;;11.97;100.00
14067;BME280;7108;42.684;23.350;2023-02-27T11:55:04;95220.91;;;12.18;100.00
14067;BME280;7108;42.684;23.350;2023-02-27T11:57:36;95229.72;;;12.12;100.00
14067;BME280;7108;42.684;23.350;2023-02-27T12:05:20;95192.88;;;12.26;100.00
14067;BME280;7108;42.684;23.350;2023-02-27T12:07:52;95205.09;;;12.49;100.00
14067;BME280;7108;42.684;23.350;2023-02-27T12:10:23;95197.75;;;12.50;100.00
14067;BME280;7108;42.684;23.350;2023-02-27T12:18:33;95198.19;;;12.88;100.00
14067;BME280;7108;42.684;23.350;2023-02-27T12:21:09;95203.72;;;13.02;100.00
14067;BME280;7108;42.684;23.350;2023-02-27T12:23:40;95206.97;;;13.21;100.00
14067;BME280;7108;42.684;23.350;2023-02-27T12:29:04;95206.59;;;13.19;100.00
14067;BME280;7108;42.684;23.350;2023-02-27T12:36:46;95190.84;;;12.89;100.00
14067;BME280;7108;42.684;23.350;2023-02-27T12:39:21;95169.22;;;12.92;100.00
14067;BME280;7108;42.684;23.350;2023-02-27T12:50:16;95200.63;;;13.00;100.00
14067;BME280;7108;42.684;23.350;2023-02-27T12:52:54;95197.69;;;12.79;100.00
14067;BME280;7108;42.684;23.350;2023-02-27T12:55:26;95169.34;;;12.66;100.00
14067;BME280;7108;42.684;23.350;2023-02-27T13:00:28;95184.16;;;12.43;100.00
14067;BME280;7108;42.684;23.350;2023-02-27T13:03:03;95183.53;;;12.56;100.00
14067;BME280;7108;42.684;23.350;2023-02-27T13:11:23;95208.94;;;12.48;100.00
14067;BME280;7108;42.684;23.350;2023-02-27T13:16:43;95212.66;;;12.37;100.00
14067;BME280;7108;42.684;23.350;2023-02-27T13:19:18;95207.34;;;12.44;100.00
14067;BME280;7108;42.684;23.350;2023-02-27T13:21:53;95210.84;;;12.48;100.00
14067;BME280;7108;42.684;23.350;2023-02-27T13:24:30;95211.75;;;12.59;100.00
14067;BME280;7108;42.684;23.350;2023-02-27T13:27:17;95211.28;;;12.50;100.00
14067;BME280;7108;42.684;23.350;2023-02-27T13:29:51;95188.84;;;12.46;100.00
14067;BME280;7108;42.684;23.350;2023-02-27T13:32:35;95163.28;;;12.40;100.00
14067;BME280;7108;42.684;23.350;2023-02-27T13:37:56;95196.84;;;12.06;100.00
14067;BME280;7108;42.684;23.350;2023-02-27T13:45:47;95203.16;;;11.88;100.00
14067;BME280;7108;42.684;23.350;2023-02-27T13:51:07;95200.44;;;11.84;100.00
14067;BME280;7108;42.684;23.350;2023-02-27T13:53:33;95201.00;;;11.45;100.00
14067;BME280;7108;42.684;23.350;2023-02-27T13:56:21;95211.44;;;11.24;100.00
14067;BME280;7108;42.684;23.350;2023-02-27T13:58:48;95235.72;;;11.24;100.00
14067;BME280;7108;42.684;23.350;2023-02-27T14:01:25;95226.72;;;10.72;100.00
14067;BME280;7108;42.684;23.350;2023-02-27T14:03:57;95226.22;;;10.45;100.00
14067;BME280;7108;42.684;23.350;2023-02-27T14:06:27;95243.19;;;10.67;100.00
14067;BME280;7108;42.684;23.350;2023-02-27T14:08:54;95223.44;;;10.22;100.00
14067;BME280;7108;42.684;23.350;2023-02-27T14:22:02;95253.69;;;9.81;100.00
14067;BME280;7108;42.684;23.350;2023-02-27T14:24:56;95233.66;;;9.79;100.00
14067;BME280;7108;42.684;23.350;2023-02-27T14:27:29;95247.81;;;9.76;100.00
14067;BME280;7108;42.684;23.350;2023-02-27T14:30:00;95236.78;;;9.47;100.00
14067;BME280;7108;42.684;23.350;2023-02-27T14:32:34;95279.19;;;9.53;100.00
14067;BME280;7108;42.684;23.350;2023-02-27T14:35:04;95278.16;;;9.12;100.00
14067;BME280;7108;42.684;23.350;2023-02-27T14:37:35;95242.88;;;8.98;100.00
14067;BME280;7108;42.684;23.350;2023-02-27T14:40:01;95284.59;;;9.07;100.00
14067;BME280;7108;42.684;23.350;2023-02-27T14:45:18;95294.13;;;9.20;100.00
14067;BME280;7108;42.684;23.350;2023-02-27T14:47:47;95306.63;;;9.28;100.00
14067;BME280;7108;42.684;23.350;2023-02-27T14:52:47;95269.31;;;9.26;100.00
14067;BME280;7108;42.684;23.350;2023-02-27T14:55:30;95296.38;;;9.33;100.00
14067;BME280;7108;42.684;23.350;2023-02-27T15:03:23;95317.69;;;9.26;100.00
14067;BME280;7108;42.684;23.350;2023-02-27T15:05:52;95303.72;;;9.06;100.00
14067;BME280;7108;42.684;23.350;2023-02-27T15:08:21;95329.78;;;9.17;100.00
14067;BME280;7108;42.684;23.350;2023-02-27T15:10:50;95315.84;;;8.84;100.00
14067;BME280;7108;42.684;23.350;2023-02-27T15:13:31;95333.53;;;8.58;100.00
14067;BME280;7108;42.684;23.350;2023-02-27T15:18:49;95382.91;;;8.81;100.00
14067;BME280;7108;42.684;23.350;2023-02-27T15:21:17;95376.56;;;8.73;100.00
14067;BME280;7108;42.684;23.350;2023-02-27T15:23:43;95354.09;;;8.66;100.00
14067;BME280;7108;42.684;23.350;2023-02-27T15:26:17;95375.78;;;8.73;100.00
14067;BME280;7108;42.684;23.350;2023-02-27T15:28:43;95373.09;;;8.73;100.00